עמוד ראשי
METAR-TAF:

METAR-TAF

שדות תעופה :

קירקוול, סקוטלנד

קו רוחב: 58-57N, קו אורך: 002-54W, גובה: 21מטר

תצפית מזג אוויר נוכחית

הדו"ח נערך לפני 20דקות, בשעה 14:20 UTC
רוח 5קשר מכיוון דרום
טמפרטורת 13 צלסיוס
לחות 88%
לחץ 1019 hPa
ראות: 8000מטר
מעט עננים בגובה 600רגל
עננים בינוניים בגובה 700רגל
ממטרים במרחב,

METAR: EGPA 191420Z 19005KT 8000 VCSH FEW006 BKN007 13/11 Q1019

זמן: 15:40 (14:40 UTC)

תחזית

הדו"ח נערך לפני 39דקות, בשעה 14:01 UTC
תחזית בתוקף מ 19 ב 15 UTC עד 19 ב 24 UTC
רוח 9קשר מכיוון דרום-מזרח
ראות 10 קילומטר או יותר
עננים פזורים בגובה 1000רגל
עננים בינוניים בגובה 1600רגל
זמנית מ -
19 ב 15 UTC עד 19 ב 24 UTC
ראות: 8000מטר
עננים בינוניים בגובה 800רגל
הסתברות 30% :
זמנית מ -
19 ב 15 UTC עד 19 ב 21 UTC
עננים בינוניים בגובה 500רגל

TAF: EGPA 191401Z 1915/1924 14009KT 9999 SCT010 BKN016 TEMPO 1915/1924 8000 BKN008 PROB30 TEMPO 1915/1921 BKN005

תצפיות ותחזיות מזג אוויר לגבי יותר מ- 4,000 שדות תעופה ברחבי העולם. דוחות METAR ו- TAF.

התחנות הזמינות מסומנות בנקודות צהובות ואדומות על גבי המפה.

העבר את העכבר לנקודה הצבעונית על מנת לראות את שם התחנה.

לאחר מכן, לחץ כדי לראות את תוכן ואת תחזיות מזג האוויר.

כדי לשנות את המפה: לחץ על הכפתורים הירוקים עם הפלוס השחור כדי להתקרב; על הכפתור הירוק עם המקף כדי להתרחק; או בחיצים הירוקים למפות סמוכות.


METAR-TAF: